createdAt,value
2023-04-30T00:00:37.422Z,50.4
2023-04-30T00:06:35.035Z,50.2
2023-04-30T00:12:28.874Z,56.1
2023-04-30T00:18:20.896Z,55.3
2023-04-30T00:24:15.292Z,54.9
2023-04-30T00:30:06.799Z,59
2023-04-30T00:36:00.253Z,63.2
2023-04-30T00:41:53.185Z,59.3
2023-04-30T00:47:48.968Z,58.5
2023-04-30T00:53:42.367Z,57.5
2023-04-30T00:59:34.528Z,59
2023-04-30T01:05:27.834Z,59.7
2023-04-30T01:11:20.652Z,55.2
2023-04-30T01:17:30.897Z,58
2023-04-30T01:23:43.608Z,54.2
2023-04-30T01:29:57.616Z,60
2023-04-30T01:36:11.124Z,58.6
2023-04-30T01:42:22.434Z,62.4
2023-04-30T01:48:40.050Z,65.7
2023-04-30T01:54:31.460Z,65.5
2023-04-30T02:00:21.948Z,65.7
2023-04-30T02:06:34.996Z,61
2023-04-30T02:12:42.382Z,67.4
2023-04-30T02:18:48.291Z,60
2023-04-30T02:24:58.438Z,56.4
2023-04-30T02:31:19.983Z,65.6
2023-04-30T02:37:24.113Z,59.9
2023-04-30T02:43:24.343Z,57.8
2023-04-30T02:49:20.328Z,66.3
2023-04-30T02:55:13.887Z,61.3
2023-04-30T03:01:09.318Z,66
2023-04-30T03:07:05.814Z,62.8
2023-04-30T03:13:06.171Z,57.9
2023-04-30T03:19:17.352Z,56.4
2023-04-30T03:25:33.472Z,53.5
2023-04-30T03:31:53.052Z,58.7
2023-04-30T03:37:53.691Z,55.3
2023-04-30T03:43:48.053Z,62.5
2023-04-30T03:50:11.479Z,51.3
2023-04-30T03:56:13.828Z,56.6
2023-04-30T04:02:13.337Z,55.7
2023-04-30T04:08:15.425Z,49.8
2023-04-30T04:14:16.287Z,60.6
2023-04-30T04:20:07.974Z,50.6
2023-04-30T04:26:11.980Z,51.7
2023-04-30T04:32:02.715Z,46.8
2023-04-30T04:44:11.824Z,45.8
2023-04-30T04:50:12.641Z,50.1
2023-04-30T04:56:04.344Z,48
2023-04-30T05:01:57.222Z,49.4
2023-04-30T05:07:50.218Z,47.4
2023-04-30T05:20:17.888Z,49.8
2023-04-30T05:26:40.968Z,56
2023-04-30T05:33:04.460Z,65.8
2023-04-30T05:39:35.883Z,61
2023-04-30T05:45:25.501Z,59.1
2023-04-30T05:51:19.504Z,58.2
2023-04-30T05:57:11.300Z,61.6
2023-04-30T06:23:27.311Z,70.1
2023-04-30T06:29:19.010Z,70.5
2023-04-30T06:35:11.349Z,66
2023-04-30T06:41:03.491Z,62.4
2023-04-30T06:46:55.893Z,63.8
2023-04-30T06:52:55.345Z,70.2
2023-04-30T06:58:48.177Z,65.9
2023-04-30T07:04:45.366Z,63.2
2023-04-30T07:10:58.917Z,65.7
2023-04-30T07:17:21.260Z,62.1
2023-04-30T07:23:19.832Z,61.6
2023-04-30T07:35:37.147Z,52.4
2023-04-30T07:42:11.742Z,52.3
2023-04-30T07:48:18.941Z,54.4
2023-04-30T07:54:10.524Z,52.1
2023-04-30T08:00:04.175Z,50.7
2023-04-30T08:05:56.551Z,49.6
2023-04-30T08:11:46.596Z,50.2
2023-04-30T08:17:37.860Z,46.3
2023-04-30T08:23:30.175Z,45.1
2023-04-30T08:29:22.213Z,40.2
2023-04-30T08:35:15.773Z,37.6
2023-04-30T08:41:13.578Z,35.3
2023-04-30T08:47:05.653Z,28.1
2023-04-30T08:52:57.770Z,27.1
2023-04-30T08:58:50.316Z,27.5
2023-04-30T09:04:42.793Z,25
2023-04-30T09:10:35.635Z,17.6
2023-04-30T09:16:30.050Z,22.3
2023-04-30T09:22:23.089Z,15.9
2023-04-30T09:28:16.746Z,13.5
2023-04-30T09:34:14.191Z,11.1
2023-04-30T09:40:09.087Z,10.7
2023-04-30T09:46:01.049Z,9.2
2023-04-30T09:51:52.777Z,6.8
2023-04-30T09:57:45.725Z,6.1
2023-04-30T10:03:38.179Z,5.7
2023-04-30T10:09:29.691Z,1.6
2023-04-30T10:15:22.222Z,0.8
2023-04-30T10:21:15.129Z,0.8
2023-04-30T10:27:06.263Z,0.7
2023-04-30T10:32:57.708Z,0.6
2023-04-30T10:38:52.257Z,0.5
2023-04-30T10:44:44.051Z,0.7
2023-04-30T10:50:36.258Z,0.4
2023-04-30T10:56:27.805Z,1
2023-04-30T11:02:19.592Z,0.6
2023-04-30T11:08:11.794Z,0.6
2023-04-30T11:14:03.131Z,0.6
2023-04-30T11:19:57.614Z,0.6
2023-04-30T11:25:49.379Z,0.5
2023-04-30T11:31:41.753Z,4
2023-04-30T11:37:43.898Z,26.6
2023-04-30T11:43:36.332Z,0.5
2023-04-30T11:49:28.569Z,0.7
2023-04-30T11:55:25.056Z,0.7
2023-04-30T12:01:15.727Z,0.6
2023-04-30T12:07:06.312Z,3.8
2023-04-30T12:13:00.225Z,1.2
2023-04-30T12:18:51.998Z,1.8
2023-04-30T12:24:44.358Z,0.7
2023-04-30T12:30:35.847Z,0.7
2023-04-30T12:36:28.157Z,0.5
2023-04-30T12:42:20.012Z,0.6
2023-04-30T12:48:12.209Z,0.6
2023-04-30T12:54:04.298Z,0.7
2023-04-30T12:59:58.175Z,0.6
2023-04-30T13:05:49.861Z,1.5
2023-04-30T13:11:41.933Z,0.6
2023-04-30T13:17:33.792Z,0.6
2023-04-30T13:23:26.808Z,0.9
2023-04-30T13:29:18.580Z,1.4
2023-04-30T13:35:10.999Z,0.7
2023-04-30T13:41:03.408Z,0.7
2023-04-30T13:46:54.976Z,0.7
2023-04-30T13:52:46.383Z,0.7
2023-04-30T13:58:39.858Z,0.6
2023-04-30T14:04:31.166Z,0.7
2023-04-30T14:10:22.590Z,0.9
2023-04-30T14:16:14.865Z,0.7
2023-04-30T14:22:06.594Z,0.7
2023-04-30T14:27:58.485Z,0.8
2023-04-30T14:33:50.944Z,0.8
2023-04-30T14:39:42.586Z,0.7
2023-04-30T14:45:35.128Z,0.9
2023-04-30T14:51:26.789Z,0.7
2023-04-30T14:57:18.479Z,0.8
2023-04-30T15:03:12.032Z,0.6
2023-04-30T15:09:04.070Z,0.5
2023-04-30T15:14:55.767Z,0.7
2023-04-30T15:20:47.600Z,0.9
2023-04-30T15:26:39.571Z,0.8
2023-04-30T15:32:31.151Z,0.7
2023-04-30T15:38:23.426Z,0.9
2023-04-30T15:44:15.788Z,0.7
2023-04-30T15:50:09.811Z,0.8
2023-04-30T15:55:59.155Z,0.7
2023-04-30T16:01:51.884Z,0.7
2023-04-30T16:07:47.095Z,0.6
2023-04-30T16:13:40.860Z,1.1
2023-04-30T16:19:32.470Z,0.7
2023-04-30T16:25:23.912Z,0.8
2023-04-30T16:31:16.587Z,1
2023-04-30T16:37:09.308Z,0.9
2023-04-30T16:43:03.222Z,0.9
2023-04-30T16:49:00.036Z,0.7
2023-04-30T16:54:58.104Z,0.8
2023-04-30T17:00:50.086Z,0.8
2023-04-30T17:06:42.879Z,1
2023-04-30T17:12:33.738Z,0.9
2023-04-30T17:18:26.239Z,0.8
2023-04-30T17:24:18.003Z,0.8
2023-04-30T17:30:09.368Z,0.7
2023-04-30T17:36:01.424Z,0.8
2023-04-30T17:41:53.694Z,0.8
2023-04-30T17:47:45.428Z,0.9
2023-04-30T17:53:41.684Z,0.9
2023-04-30T17:59:35.075Z,1.3
2023-04-30T18:05:30.375Z,0.9
2023-04-30T18:11:23.981Z,1.1
2023-04-30T18:17:15.824Z,1.1
2023-04-30T18:23:09.770Z,2
2023-04-30T18:29:01.867Z,1.7
2023-04-30T18:34:52.960Z,1.2
2023-04-30T18:40:45.932Z,1.2
2023-04-30T18:46:37.896Z,1.3
2023-04-30T18:52:29.120Z,1.8
2023-04-30T18:58:23.480Z,1
2023-04-30T19:04:14.364Z,1.1
2023-04-30T19:10:06.166Z,1.2
2023-04-30T19:15:57.232Z,1.3
2023-04-30T19:21:48.325Z,1.2
2023-04-30T19:27:42.866Z,1.7
2023-04-30T19:33:34.020Z,1.3
2023-04-30T19:39:28.643Z,2.1
2023-04-30T19:45:19.264Z,1.4
2023-04-30T19:51:13.079Z,1.9
2023-04-30T19:57:05.023Z,2.1
2023-04-30T20:02:58.603Z,1.9
2023-04-30T20:08:50.718Z,2
2023-04-30T20:15:54.050Z,2.2
2023-04-30T20:21:44.249Z,2.7
2023-04-30T20:27:36.042Z,3.2
2023-04-30T20:33:29.011Z,3.4
2023-04-30T20:39:21.221Z,3
2023-04-30T20:45:12.875Z,2.4
2023-04-30T20:51:06.041Z,2.7
2023-04-30T20:56:57.564Z,3.2
2023-04-30T21:02:49.175Z,3.1
2023-04-30T21:08:40.924Z,3.3
2023-04-30T21:14:34.045Z,3
2023-04-30T21:20:25.412Z,3.1
2023-04-30T21:26:19.597Z,3.5
2023-04-30T21:32:14.107Z,3.3
2023-04-30T21:38:04.885Z,3.6
2023-04-30T21:43:56.614Z,3.6
2023-04-30T21:49:48.464Z,3.6
2023-04-30T21:55:40.713Z,4.2
2023-04-30T22:01:31.432Z,4.7
2023-04-30T22:07:21.575Z,4.6
2023-04-30T22:13:10.699Z,4.3
2023-04-30T22:19:04.201Z,3.7
2023-04-30T22:24:54.425Z,3
2023-04-30T22:30:45.653Z,2.8
2023-04-30T22:36:36.638Z,2
2023-04-30T22:42:27.604Z,2
2023-04-30T22:48:19.012Z,1.9
2023-04-30T22:54:10.440Z,2.2
2023-04-30T23:00:03.350Z,3.2
2023-04-30T23:05:54.151Z,2.6
2023-04-30T23:11:46.082Z,3.3
2023-04-30T23:17:39.510Z,2.9
2023-04-30T23:23:31.385Z,3.8
2023-04-30T23:29:23.333Z,3.1
2023-04-30T23:35:15.296Z,2.7
2023-04-30T23:41:06.792Z,3
2023-04-30T23:46:59.247Z,2.5
2023-04-30T23:52:49.818Z,2.3
2023-04-30T23:58:42.278Z,2.2
